Time;durP1;ratioP1;P1;durP2;ratioP2;P2;SDS_P1;SDS_P2;PMS_P1;PMS_P2;Temp;Humidity;BMP_temperature;BMP_pressure;BME280_temperature;BME280_humidity;BME280_pressure;Samples;Min_cycle;Max_cycle;Signal;HPM_P1;HPM_P2
2022/09/04 00:01:47;;;;;;;8.90;7.53;;;16.00;99.90;;;;;;5014099;28;20461;-65
2022/09/04 00:04:22;;;;;;;7.70;7.10;;;15.90;99.90;;;;;;5019468;28;20657;-65
2022/09/04 00:07:19;;;;;;;9.17;7.60;;;15.90;99.90;;;;;;5009221;28;20531;-65
2022/09/04 00:09:52;;;;;;;10.00;8.67;;;15.90;99.90;;;;;;5011825;28;21139;-65
2022/09/04 00:12:24;;;;;;;11.43;8.70;;;15.90;99.90;;;;;;5018217;28;20495;-66
2022/09/04 00:15:09;;;;;;;11.57;9.97;;;15.80;99.90;;;;;;5010702;28;20433;-65
2022/09/04 00:17:45;;;;;;;9.60;8.60;;;15.90;99.90;;;;;;5014515;28;20440;-65
2022/09/04 00:20:19;;;;;;;8.90;7.63;;;15.90;99.90;;;;;;5015992;28;20452;-65
2022/09/04 00:22:44;;;;;;;10.07;8.67;;;15.90;99.90;;;;;;5020963;28;20560;-65
2022/09/04 00:25:33;;;;;;;11.90;9.10;;;15.80;99.90;;;;;;5021480;28;20463;-65
2022/09/04 00:28:10;;;;;;;10.40;9.33;;;15.80;99.90;;;;;;5017073;28;20236;-65
2022/09/04 00:30:45;;;;;;;11.00;9.90;;;15.80;99.90;;;;;;5017849;28;20493;-65
2022/09/04 00:33:34;;;;;;;10.47;9.23;;;15.80;99.90;;;;;;5019566;28;20502;-66
2022/09/04 00:36:03;;;;;;;9.83;8.83;;;15.80;99.90;;;;;;5022358;28;20445;-66
2022/09/04 00:38:42;;;;;;;9.77;8.77;;;15.80;99.90;;;;;;5022287;28;20436;-66
2022/09/04 00:41:26;;;;;;;10.60;8.00;;;15.70;99.90;;;;;;5017241;28;20453;-66
2022/09/04 00:44:16;;;;;;;8.23;6.73;;;15.60;99.90;;;;;;5011685;28;20439;-66
2022/09/04 00:47:04;;;;;;;9.20;7.80;;;15.70;99.90;;;;;;5017625;28;20496;-66
2022/09/04 00:50:01;;;;;;;8.47;7.67;;;15.70;99.90;;;;;;5020663;28;20440;-66
2022/09/04 00:52:53;;;;;;;10.67;9.57;;;15.70;99.90;;;;;;4999116;28;20447;-66
2022/09/04 00:55:30;;;;;;;8.60;7.73;;;15.60;99.90;;;;;;5023487;28;20798;-66
2022/09/04 00:58:19;;;;;;;8.33;7.50;;;15.60;99.90;;;;;;5023224;28;20435;-66
2022/09/04 01:00:46;;;;;;;7.10;6.50;;;15.60;99.90;;;;;;5016428;28;20479;-66
2022/09/04 01:03:39;;;;;;;8.50;7.70;;;15.50;99.90;;;;;;5017820;28;20462;-66
2022/09/04 01:06:28;;;;;;;9.50;7.17;;;15.50;99.90;;;;;;5023788;28;20433;-66
2022/09/04 01:09:42;;;;;;;8.30;7.50;;;15.40;99.90;;;;;;5018455;28;20425;-66
2022/09/04 01:12:44;;;;;;;8.00;7.20;;;15.40;99.90;;;;;;5016424;28;20532;-66
2022/09/04 01:15:28;;;;;;;8.90;8.00;;;15.40;99.90;;;;;;5019327;28;20813;-66
2022/09/04 01:18:17;;;;;;;9.30;8.30;;;15.40;99.90;;;;;;5013885;28;20426;-66
2022/09/04 01:21:23;;;;;;;9.10;8.17;;;15.40;99.90;;;;;;5012863;28;20460;-66
2022/09/04 01:23:57;;;;;;;9.10;7.80;;;15.30;99.90;;;;;;5018499;28;20499;-66
2022/09/04 01:26:35;;;;;;;9.97;7.73;;;15.30;99.90;;;;;;5019520;28;20848;-66
2022/09/04 01:29:38;;;;;;;10.13;8.43;;;15.30;99.90;;;;;;5018270;28;20436;-66
2022/09/04 01:32:10;;;;;;;9.07;8.27;;;15.50;99.90;;;;;;5016242;28;20950;-66
2022/09/04 01:35:10;;;;;;;7.30;6.70;;;15.30;99.90;;;;;;5010111;28;20485;-66
2022/09/04 01:38:05;;;;;;;8.80;7.90;;;15.20;99.90;;;;;;5007477;28;20516;-66
2022/09/04 01:40:39;;;;;;;7.60;6.90;;;15.20;99.90;;;;;;5017471;28;20876;-66
2022/09/04 01:43:17;;;;;;;8.03;7.23;;;15.20;99.90;;;;;;5019927;28;20436;-66
2022/09/04 01:46:04;;;;;;;7.20;6.50;;;15.20;99.90;;;;;;5011448;28;20428;-66
2022/09/04 01:48:49;;;;;;;7.07;6.37;;;15.20;99.90;;;;;;5012108;28;20430;-66
2022/09/04 01:51:22;;;;;;;7.27;6.57;;;15.10;99.90;;;;;;5016689;28;20453;-66
2022/09/04 01:54:11;;;;;;;7.30;6.60;;;15.10;99.90;;;;;;5021942;28;20546;-66
2022/09/04 01:56:47;;;;;;;7.47;6.80;;;15.10;99.90;;;;;;5018900;28;20434;-66
2022/09/04 01:59:28;;;;;;;7.33;6.73;;;15.10;99.90;;;;;;5014854;28;20567;-66
2022/09/04 02:02:08;;;;;;;7.83;7.00;;;15.00;99.90;;;;;;5020362;28;20464;-66
2022/09/04 02:04:50;;;;;;;7.63;7.03;;;15.10;99.90;;;;;;5018093;28;20937;-66
2022/09/04 02:07:55;;;;;;;8.07;7.30;;;15.10;99.90;;;;;;5015210;28;20436;-66
2022/09/04 02:10:52;;;;;;;8.00;7.30;;;15.10;99.90;;;;;;4999698;28;20956;-66
2022/09/04 02:13:28;;;;;;;9.40;7.80;;;15.00;99.90;;;;;;5014596;28;20440;-66
2022/09/04 02:16:13;;;;;;;7.50;6.80;;;15.10;99.90;;;;;;5011615;28;20520;-66
2022/09/04 02:19:02;;;;;;;6.63;6.10;;;15.00;99.90;;;;;;5014673;28;20434;-66
2022/09/04 02:21:50;;;;;;;7.10;6.53;;;15.00;99.90;;;;;;5021014;28;20453;-66
2022/09/04 02:24:47;;;;;;;6.40;5.27;;;15.00;99.90;;;;;;5008368;28;20440;-66
2022/09/04 02:27:32;;;;;;;6.00;5.40;;;14.80;99.90;;;;;;5009507;28;20441;-66
2022/09/04 02:30:03;;;;;;;6.17;5.60;;;15.00;99.90;;;;;;5019797;28;20445;-66
2022/09/04 02:32:57;;;;;;;7.60;6.80;;;14.90;99.90;;;;;;5014618;28;20437;-66
2022/09/04 02:35:28;;;;;;;7.03;5.83;;;14.80;99.90;;;;;;5016168;28;20438;-66
2022/09/04 02:38:14;;;;;;;5.93;5.43;;;14.80;99.90;;;;;;5022742;28;20972;-66
2022/09/04 02:40:50;;;;;;;5.70;5.30;;;14.90;99.90;;;;;;5009295;28;20464;-66
2022/09/04 02:43:42;;;;;;;10.37;5.73;;;14.90;99.90;;;;;;5019643;28;20438;-66
2022/09/04 02:46:17;;;;;;;6.67;6.00;;;14.90;99.90;;;;;;5024600;28;20881;-66
2022/09/04 02:49:02;;;;;;;6.60;6.10;;;14.90;99.90;;;;;;5011610;28;20418;-66
2022/09/04 02:51:45;;;;;;;5.90;5.40;;;14.90;99.90;;;;;;5020794;28;20445;-66
2022/09/04 02:54:36;;;;;;;6.10;5.60;;;14.80;99.90;;;;;;5022252;28;20455;-66
2022/09/04 02:57:32;;;;;;;5.47;5.07;;;14.80;99.90;;;;;;5007352;28;20429;-66
2022/09/04 03:03:04;;;;;;;5.77;5.27;;;14.70;99.90;;;;;;5024489;28;20429;-66
2022/09/04 03:05:40;;;;;;;6.83;6.23;;;14.70;99.90;;;;;;5020078;28;20840;-66
2022/09/04 03:08:33;;;;;;;7.03;6.33;;;14.80;99.90;;;;;;5025399;28;20424;-66
2022/09/04 03:11:13;;;;;;;5.60;5.00;;;14.80;99.90;;;;;;5011276;28;20868;-66
2022/09/04 03:13:55;;;;;;;6.63;5.50;;;14.80;99.90;;;;;;5010414;28;20428;-67
2022/09/04 03:16:33;;;;;;;5.83;5.33;;;14.80;99.90;;;;;;5017458;28;20444;-66
2022/09/04 03:19:07;;;;;;;5.60;5.10;;;14.80;99.90;;;;;;5026133;28;20461;-66
2022/09/04 03:21:45;;;;;;;7.03;5.43;;;14.70;99.90;;;;;;5024534;28;20511;-66
2022/09/04 03:24:37;;;;;;;5.30;4.80;;;14.70;99.90;;;;;;5015699;28;20438;-66
2022/09/04 03:27:15;;;;;;;6.10;5.50;;;14.70;99.90;;;;;;5013340;28;20430;-66
2022/09/04 03:29:43;;;;;;;6.13;5.63;;;14.70;99.90;;;;;;5023611;28;20474;-66
2022/09/04 03:32:40;;;;;;;5.63;5.10;;;14.70;99.90;;;;;;5020848;28;20440;-66
2022/09/04 03:35:22;;;;;;;5.70;5.30;;;14.60;99.90;;;;;;5017450;28;20429;-66
2022/09/04 03:37:56;;;;;;;6.27;5.67;;;14.60;99.90;;;;;;5015709;28;20438;-66
2022/09/04 03:40:38;;;;;;;6.03;5.60;;;14.60;99.90;;;;;;5023847;28;20452;-66
2022/09/04 03:43:34;;;;;;;5.53;5.03;;;14.60;99.90;;;;;;5033065;28;20421;-66
2022/09/04 03:46:11;;;;;;;5.03;4.63;;;14.60;99.90;;;;;;5021282;28;20433;-66
2022/09/04 03:48:55;;;;;;;5.67;5.17;;;14.60;99.90;;;;;;5017016;28;20934;-66
2022/09/04 03:51:50;;;;;;;6.20;5.10;;;14.50;99.90;;;;;;5021843;28;20456;-66
2022/09/04 03:54:41;;;;;;;6.43;5.90;;;14.50;99.90;;;;;;5020215;28;20471;-66
2022/09/04 03:58:05;;;;;;;9.17;5.97;;;14.50;99.90;;;;;;5025123;28;20435;-66
2022/09/04 04:00:45;;;;;;;5.80;5.30;;;14.40;99.90;;;;;;5009090;28;20480;-66
2022/09/04 04:03:24;;;;;;;6.00;5.50;;;14.40;99.90;;;;;;5011290;28;20484;-66
2022/09/04 04:06:29;;;;;;;6.90;6.20;;;14.40;99.90;;;;;;5015400;28;20445;-66
2022/09/04 04:09:21;;;;;;;6.60;6.00;;;14.40;99.90;;;;;;5017263;28;20422;-66
2022/09/04 04:12:05;;;;;;;6.33;5.83;;;14.40;99.90;;;;;;5018849;23;20577;-66
2022/09/04 04:14:56;;;;;;;7.93;6.20;;;14.30;99.90;;;;;;5012041;28;20448;-66
2022/09/04 04:17:33;;;;;;;6.67;6.07;;;14.40;99.90;;;;;;5012071;28;20437;-65
2022/09/04 04:20:28;;;;;;;6.77;6.17;;;14.40;99.90;;;;;;5009582;28;20425;-66
2022/09/04 04:23:16;;;;;;;6.33;5.83;;;14.40;99.90;;;;;;4992899;28;20475;-66
2022/09/04 04:26:03;;;;;;;7.10;6.27;;;14.30;99.90;;;;;;4986757;28;20450;-65
2022/09/04 04:28:34;;;;;;;5.80;5.40;;;14.30;99.90;;;;;;4992078;28;20500;-66
2022/09/04 04:31:41;;;;;;;6.60;6.00;;;14.30;99.90;;;;;;4990371;28;21003;-65
2022/09/04 04:34:39;;;;;;;5.53;5.03;;;14.30;99.90;;;;;;4978335;28;20533;-66
2022/09/04 04:37:21;;;;;;;6.13;5.63;;;14.30;99.90;;;;;;4984708;28;20439;-65
2022/09/04 04:39:57;;;;;;;6.47;5.87;;;14.20;99.90;;;;;;4985302;28;20438;-65
2022/09/04 04:42:39;;;;;;;6.50;5.90;;;14.20;99.90;;;;;;4993237;28;20500;-66
2022/09/04 04:45:49;;;;;;;6.30;5.80;;;14.20;99.90;;;;;;4993038;28;20530;-65
2022/09/04 04:48:22;;;;;;;6.40;5.07;;;14.20;99.90;;;;;;4984989;28;20445;-66
2022/09/04 04:51:30;;;;;;;6.20;5.70;;;14.30;99.90;;;;;;4990677;28;20466;-65
2022/09/04 04:54:01;;;;;;;6.60;6.00;;;14.20;99.90;;;;;;4986191;28;20517;-66
2022/09/04 04:56:39;;;;;;;10.27;9.40;;;14.20;99.90;;;;;;4992907;28;20431;-66
2022/09/04 04:59:19;;;;;;;11.20;10.10;;;14.00;99.90;;;;;;4991838;28;20461;-65
2022/09/04 05:02:15;;;;;;;8.03;6.83;;;14.20;99.90;;;;;;4985730;28;21017;-66
2022/09/04 05:05:15;;;;;;;7.60;5.90;;;14.20;99.90;;;;;;4986615;28;20439;-66
2022/09/04 05:07:54;;;;;;;7.00;6.40;;;14.20;99.90;;;;;;4991860;28;20438;-65
2022/09/04 05:10:48;;;;;;;6.57;5.97;;;14.30;99.90;;;;;;4991565;28;20438;-66
2022/09/04 05:13:46;;;;;;;5.80;5.37;;;14.40;99.90;;;;;;4992010;28;20446;-66
2022/09/04 05:16:33;;;;;;;8.80;6.63;;;14.40;99.90;;;;;;4987722;28;20450;-66
2022/09/04 05:19:20;;;;;;;7.63;6.93;;;14.50;99.90;;;;;;4990209;28;20474;-65
2022/09/04 05:22:04;;;;;;;6.60;5.83;;;14.60;99.90;;;;;;4990294;28;21017;-66
2022/09/04 05:24:56;;;;;;;7.10;6.30;;;14.70;99.90;;;;;;4992412;28;20446;-66
2022/09/04 05:27:22;;;;;;;6.90;6.30;;;14.80;99.90;;;;;;4990773;28;20442;-65
2022/09/04 05:29:57;;;;;;;6.53;5.93;;;15.00;99.90;;;;;;4991752;28;20493;-66
2022/09/04 05:32:31;;;;;;;5.63;5.23;;;15.20;99.90;;;;;;4991101;28;20573;-66
2022/09/04 05:35:02;;;;;;;5.40;5.00;;;15.40;99.90;;;;;;4993058;28;20438;-66
2022/09/04 05:37:39;;;;;;;6.10;5.43;;;15.60;99.90;;;;;;4992285;28;20441;-65
2022/09/04 05:40:26;;;;;;;5.53;5.03;;;15.70;99.90;;;;;;4990744;28;20449;-66
2022/09/04 05:43:03;;;;;;;6.50;5.90;;;15.80;99.90;;;;;;4985270;28;20458;-66
2022/09/04 05:45:36;;;;;;;7.93;6.20;;;15.90;99.90;;;;;;4991004;28;20967;-66
2022/09/04 05:48:20;;;;;;;5.30;4.90;;;15.90;99.90;;;;;;4991829;28;20431;-66
2022/09/04 05:51:12;;;;;;;5.60;5.10;;;16.10;99.90;;;;;;4985230;28;20458;-66
2022/09/04 05:53:46;;;;;;;7.00;4.90;;;16.40;99.90;;;;;;4990434;28;20837;-65
2022/09/04 05:56:22;;;;;;;6.30;5.70;;;16.70;99.90;;;;;;4991306;28;20434;-66
2022/09/04 05:58:57;;;;;;;5.97;5.10;;;16.90;99.90;;;;;;4987312;28;20446;-66
2022/09/04 06:01:54;;;;;;;5.70;5.27;;;17.00;99.90;;;;;;4991652;28;20507;-66
2022/09/04 06:04:37;;;;;;;6.90;6.20;;;17.20;99.90;;;;;;4990800;28;20862;-65
2022/09/04 06:07:08;;;;;;;6.50;6.00;;;17.30;99.90;;;;;;4991142;28;20438;-66
2022/09/04 06:09:44;;;;;;;5.70;5.20;;;17.50;99.90;;;;;;4991041;28;20441;-66
2022/09/04 06:12:17;;;;;;;7.17;5.50;;;17.60;99.90;;;;;;4990630;28;20869;-66
2022/09/04 06:15:20;;;;;;;6.50;5.90;;;17.60;99.90;;;;;;4988608;28;20438;-66
2022/09/04 06:18:00;;;;;;;5.67;5.20;;;17.70;99.90;;;;;;4984085;28;20445;-65
2022/09/04 06:20:52;;;;;;;5.63;5.20;;;18.00;99.90;;;;;;4990130;28;21005;-66
2022/09/04 06:23:24;;;;;;;6.13;5.60;;;18.20;99.90;;;;;;4958621;28;20928;-66
2022/09/04 06:26:14;;;;;;;6.33;4.77;;;18.50;99.90;;;;;;4990877;28;20439;-66
2022/09/04 06:28:57;;;;;;;5.30;4.87;;;18.70;99.90;;;;;;4991015;28;20960;-66
2022/09/04 06:31:22;;;;;;;5.80;5.30;;;18.90;99.90;;;;;;4989332;28;20457;-67
2022/09/04 06:34:13;;;;;;;6.03;5.53;;;19.10;99.90;;;;;;4991333;28;20438;-66
2022/09/04 06:37:04;;;;;;;5.50;5.10;;;19.30;99.90;;;;;;4984118;28;20183;-66
2022/09/04 06:40:04;;;;;;;6.17;5.57;;;19.50;99.90;;;;;;4989386;28;20445;-66
2022/09/04 06:42:35;;;;;;;5.60;5.10;;;19.60;99.90;;;;;;4962073;28;20539;-66
2022/09/04 06:45:25;;;;;;;6.17;5.67;;;19.70;99.90;;;;;;4994558;28;20859;-66
2022/09/04 06:48:28;;;;;;;5.47;4.97;;;19.90;99.90;;;;;;4989261;28;20431;-66
2022/09/04 06:51:18;;;;;;;5.77;5.23;;;20.00;99.90;;;;;;4929656;29;20456;-66
2022/09/04 06:54:03;;;;;;;5.10;4.70;;;20.20;99.90;;;;;;4991510;28;20471;-66
2022/09/04 06:56:39;;;;;;;6.27;5.80;;;20.30;99.90;;;;;;4994721;28;20441;-66
2022/09/04 06:59:35;;;;;;;8.33;6.60;;;20.10;99.90;;;;;;4990831;28;20523;-66
2022/09/04 07:02:24;;;;;;;5.70;5.20;;;20.00;99.90;;;;;;4990443;28;20556;-66
2022/09/04 07:05:09;;;;;;;5.07;4.57;;;20.20;99.90;;;;;;4988915;28;20445;-67
2022/09/04 07:08:01;;;;;;;5.00;4.70;;;20.50;99.90;;;;;;4992293;28;20435;-66
2022/09/04 07:10:37;;;;;;;4.87;4.47;;;20.70;99.90;;;;;;4991619;28;20465;-66
2022/09/04 07:13:30;;;;;;;4.40;4.10;;;21.00;99.90;;;;;;4994330;28;20465;-66
2022/09/04 07:16:14;;;;;;;4.97;4.50;;;21.30;99.90;;;;;;4983108;28;20441;-66
2022/09/04 07:19:06;;;;;;;6.50;5.70;;;21.60;99.90;;;;;;4985632;28;20478;-67
2022/09/04 07:22:11;;;;;;;6.57;4.03;;;21.70;99.90;;;;;;4993164;28;20963;-67
2022/09/04 07:24:56;;;;;;;4.27;3.97;;;21.90;99.90;;;;;;4980019;28;20426;-66
2022/09/04 07:27:43;;;;;;;8.30;4.80;;;22.20;99.90;;;;;;4993858;28;20434;-67
2022/09/04 07:30:14;;;;;;;4.00;3.70;;;22.30;99.90;;;;;;4992370;28;20426;-67
2022/09/04 07:33:14;;;;;;;3.83;3.53;;;22.40;99.90;;;;;;4987272;28;20438;-67
2022/09/04 07:35:47;;;;;;;3.33;3.07;;;22.60;99.90;;;;;;4977660;28;20485;-67
2022/09/04 07:38:52;;;;;;;4.07;3.77;;;22.50;99.90;;;;;;4993551;28;20522;-66
2022/09/04 07:41:22;;;;;;;3.80;3.50;;;22.70;99.90;;;;;;4984491;28;20463;-66
2022/09/04 07:44:15;;;;;;;3.77;3.50;;;22.90;99.90;;;;;;4992452;28;20896;-67
2022/09/04 07:46:53;;;;;;;3.90;3.60;;;23.10;99.90;;;;;;4986098;28;20479;-67
2022/09/04 07:49:35;;;;;;;3.80;3.50;;;23.30;99.90;;;;;;4992565;28;20946;-67
2022/09/04 07:52:17;;;;;;;3.33;2.57;;;23.60;99.90;;;;;;4992365;28;20545;-67
2022/09/04 07:55:00;;;;;;;3.17;2.97;;;23.70;99.90;;;;;;4990872;28;20442;-67
2022/09/04 07:57:40;;;;;;;4.93;2.80;;;23.90;99.90;;;;;;4991409;28;20478;-67
2022/09/04 08:00:17;;;;;;;4.20;2.87;;;23.90;99.90;;;;;;4991380;28;20434;-67
2022/09/04 08:03:01;;;;;;;3.77;3.43;;;23.90;99.90;;;;;;4992454;28;20572;-67
2022/09/04 08:05:29;;;;;;;2.70;2.50;;;24.00;99.90;;;;;;4993782;28;20442;-67
2022/09/04 08:08:14;;;;;;;2.00;1.90;;;24.00;99.90;;;;;;4993749;28;20430;-67
2022/09/04 08:10:59;;;;;;;2.97;2.13;;;24.20;99.90;;;;;;4990008;28;20548;-67
2022/09/04 08:13:40;;;;;;;2.80;2.60;;;24.30;99.90;;;;;;4992884;28;20944;-67
2022/09/04 08:16:31;;;;;;;2.87;2.67;;;24.30;99.90;;;;;;4993328;28;20441;-67
2022/09/04 08:19:00;;;;;;;4.33;2.37;;;24.10;99.90;;;;;;4987086;28;20998;-67
2022/09/04 08:21:36;;;;;;;2.27;2.10;;;23.70;99.90;;;;;;4992468;28;20466;-67
2022/09/04 08:24:40;;;;;;;7.33;2.30;;;23.40;99.90;;;;;;4992645;28;20521;-67
2022/09/04 08:27:23;;;;;;;3.53;2.00;;;23.80;99.90;;;;;;4987128;28;20465;-67
2022/09/04 08:30:03;;;;;;;2.50;2.30;;;24.40;99.90;;;;;;4984767;28;20465;-67
2022/09/04 08:32:46;;;;;;;5.47;2.83;;;24.50;99.90;;;;;;4993617;28;20461;-67
2022/09/04 08:35:23;;;;;;;2.37;2.03;;;24.60;99.90;;;;;;4993700;28;20437;-67
2022/09/04 08:37:57;;;;;;;2.50;2.30;;;25.10;99.90;;;;;;4993247;28;20438;-67
2022/09/04 08:40:56;;;;;;;2.77;2.10;;;25.80;99.90;;;;;;4991701;28;20435;-67
2022/09/04 08:43:45;;;;;;;3.37;2.53;;;26.40;99.90;;;;;;4989729;28;20446;-66
2022/09/04 08:46:47;;;;;;;2.93;2.60;;;25.80;99.90;;;;;;4989549;28;20496;-67
2022/09/04 08:49:30;;;;;;;2.37;1.70;;;25.30;99.90;;;;;;4991108;28;20474;-67
2022/09/04 08:52:05;;;;;;;3.23;1.73;;;25.80;99.90;;;;;;4993185;28;20466;-67
2022/09/04 08:55:06;;;;;;;2.57;2.47;;;25.60;99.90;;;;;;4988970;28;20442;-67
2022/09/04 08:57:51;;;;;;;2.27;2.17;;;25.80;99.90;;;;;;4991395;28;20457;-66
2022/09/04 09:00:19;;;;;;;3.40;1.80;;;26.60;99.90;;;;;;4989417;28;20444;-67
2022/09/04 09:03:03;;;;;;;2.13;1.87;;;27.10;99.90;;;;;;4991892;28;20450;-65
2022/09/04 09:05:35;;;;;;;4.10;3.80;;;27.60;99.90;;;;;;4992404;28;20418;-65
2022/09/04 09:08:33;;;;;;;2.87;2.00;;;28.10;99.90;;;;;;4993425;28;20419;-65
2022/09/04 09:11:37;;;;;;;3.03;1.90;;;28.80;99.90;;;;;;4991867;28;20976;-65
2022/09/04 09:14:30;;;;;;;1.90;1.57;;;29.00;99.90;;;;;;4993568;28;21057;-65
2022/09/04 09:17:12;;;;;;;2.20;2.03;;;30.10;99.90;;;;;;4993472;28;20457;-65
2022/09/04 09:19:38;;;;;;;2.07;1.97;;;28.80;99.90;;;;;;4989764;28;20431;-65
2022/09/04 09:22:36;;;;;;;2.03;1.93;;;28.90;99.90;;;;;;4973702;28;20459;-65
2022/09/04 09:25:22;;;;;;;2.57;2.37;;;30.00;99.90;;;;;;4973898;28;20176;-65
2022/09/04 09:28:03;;;;;;;2.10;1.90;;;30.60;99.90;;;;;;4976819;28;20450;-65
2022/09/04 09:31:09;;;;;;;2.07;1.97;;;31.80;98.10;;;;;;4994953;28;20438;-65
2022/09/04 09:33:56;;;;;;;2.50;2.30;;;32.80;94.40;;;;;;4976927;28;20442;-65
2022/09/04 09:36:43;;;;;;;2.60;1.87;;;32.30;94.50;;;;;;4993980;28;20446;-65
2022/09/04 09:39:11;;;;;;;2.00;1.90;;;33.10;93.20;;;;;;4997440;28;20438;-66
2022/09/04 09:42:14;;;;;;;1.93;1.83;;;33.00;90.50;;;;;;4992815;28;20855;-65
2022/09/04 09:45:10;;;;;;;1.90;1.80;;;33.20;90.60;;;;;;4984660;28;20462;-65
2022/09/04 09:47:58;;;;;;;2.70;2.50;;;33.50;90.20;;;;;;4986736;28;20439;-65
2022/09/04 09:50:42;;;;;;;2.00;1.90;;;34.30;87.40;;;;;;4987409;28;20980;-65
2022/09/04 09:53:30;;;;;;;2.43;2.27;;;34.80;84.40;;;;;;4992277;28;20462;-65
2022/09/04 09:56:07;;;;;;;2.40;2.20;;;35.60;83.10;;;;;;4988544;28;20466;-64
2022/09/04 09:58:51;;;;;;;2.10;2.00;;;34.70;79.90;;;;;;4990932;28;20869;-65
2022/09/04 10:02:10;;;;;;;3.73;2.00;;;34.10;83.00;;;;;;4990778;28;20470;-64
2022/09/04 10:05:03;;;;;;;2.20;1.73;;;34.80;80.40;;;;;;4930041;29;20441;-65
2022/09/04 10:07:43;;;;;;;2.33;2.10;;;35.30;78.90;;;;;;4931749;29;20437;-65
2022/09/04 10:10:47;;;;;;;2.00;1.90;;;35.90;77.20;;;;;;4981899;28;20434;-65
2022/09/04 10:13:13;;;;;;;2.20;2.10;;;34.80;76.80;;;;;;4988554;28;20441;-65
2022/09/04 10:16:09;;;;;;;2.43;2.27;;;33.20;79.90;;;;;;4990540;28;20443;-65
2022/09/04 10:19:34;;;;;;;2.30;2.20;;;31.90;84.40;;;;;;4985384;28;20434;-65
2022/09/04 10:22:26;;;;;;;3.00;2.70;;;31.20;84.70;;;;;;4926647;29;21105;-65
2022/09/04 10:25:04;;;;;;;4.77;4.43;;;31.90;83.00;;;;;;4925656;29;20445;-65
2022/09/04 10:27:48;;;;;;;1.93;1.83;;;34.90;77.70;;;;;;4978958;28;20449;-65
2022/09/04 10:30:22;;;;;;;2.87;2.67;;;35.00;72.70;;;;;;4988585;28;20800;-65
2022/09/04 10:33:05;;;;;;;2.23;2.03;;;33.20;74.80;;;;;;4991178;28;20435;-65
2022/09/04 10:35:53;;;;;;;1.70;1.60;;;32.80;77.80;;;;;;4990541;28;20488;-65
2022/09/04 10:41:47;;;;;;;1.73;1.63;;;32.60;75.60;;;;;;4991192;28;20548;-64
2022/09/04 10:44:24;;;;;;;2.00;1.90;;;32.00;78.70;;;;;;4990302;28;20558;-65
2022/09/04 10:46:58;;;;;;;2.07;1.97;;;34.60;75.20;;;;;;4989117;28;20509;-65
2022/09/04 10:50:01;;;;;;;2.23;2.03;;;36.90;70.00;;;;;;4989184;28;20426;-65
2022/09/04 10:52:50;;;;;;;1.83;1.73;;;38.20;65.70;;;;;;4990297;28;20553;-65
2022/09/04 10:55:31;;;;;;;1.97;1.87;;;38.70;62.60;;;;;;4989019;28;20430;-65
2022/09/04 10:58:10;;;;;;;2.53;1.67;;;40.20;49.30;;;;;;4991423;28;20426;-65
2022/09/04 11:01:19;;;;;;;1.77;1.60;;;39.90;47.10;;;;;;4987665;28;21046;-66
2022/09/04 11:04:12;;;;;;;1.80;1.70;;;36.90;48.80;;;;;;4989635;28;20445;-65
2022/09/04 11:06:48;;;;;;;2.07;1.97;;;35.80;49.40;;;;;;4988340;28;20822;-65
2022/09/04 11:09:22;;;;;;;1.80;1.70;;;34.30;51.20;;;;;;4987761;28;20434;-65
2022/09/04 11:12:09;;;;;;;1.77;1.63;;;36.30;50.50;;;;;;4990635;28;20485;-65
2022/09/04 11:15:00;;;;;;;1.77;1.67;;;36.80;48.80;;;;;;4990264;28;20438;-65
2022/09/04 11:18:02;;;;;;;2.07;1.97;;;36.80;48.50;;;;;;4990500;28;20445;-66
2022/09/04 11:20:43;;;;;;;2.60;1.90;;;37.50;48.30;;;;;;4987862;28;20450;-65
2022/09/04 11:23:33;;;;;;;2.43;2.00;;;39.10;47.00;;;;;;4989831;28;20510;-66
2022/09/04 11:26:19;;;;;;;2.40;1.93;;;41.40;54.20;;;;;;4990324;28;20437;-65
2022/09/04 11:29:00;;;;;;;2.00;1.90;;;40.80;51.60;;;;;;4986982;28;20486;-65
2022/09/04 11:31:38;;;;;;;2.17;2.07;;;39.00;52.50;;;;;;4992700;28;20822;-66
2022/09/04 11:34:31;;;;;;;1.90;1.80;;;38.10;53.40;;;;;;4992982;28;20810;-65
2022/09/04 11:37:26;;;;;;;6.73;6.30;;;38.90;53.90;;;;;;4987687;28;20516;-66
2022/09/04 11:39:52;;;;;;;2.40;2.30;;;40.90;52.30;;;;;;4989655;28;20541;-66
2022/09/04 11:42:40;;;;;;;2.23;1.80;;;41.10;50.40;;;;;;4994199;28;20557;-66
2022/09/04 11:45:40;;;;;;;2.00;1.90;;;41.40;49.60;;;;;;4995132;28;20238;-65
2022/09/04 11:48:30;;;;;;;2.00;1.90;;;39.00;50.40;;;;;;4990508;28;20430;-65
2022/09/04 11:51:31;;;;;;;1.87;1.77;;;35.60;53.00;;;;;;4993196;28;20908;-65
2022/09/04 11:54:22;;;;;;;2.13;1.90;;;34.40;55.30;;;;;;4989477;28;20488;-65
2022/09/04 11:57:00;;;;;;;2.00;1.90;;;36.80;53.30;;;;;;4987831;28;20967;-65
2022/09/04 11:59:38;;;;;;;2.00;1.90;;;39.00;50.80;;;;;;4991702;28;20438;-65
2022/09/04 12:02:38;;;;;;;2.80;2.60;;;40.70;49.00;;;;;;4992822;28;20469;-65
2022/09/04 12:05:38;;;;;;;2.17;2.07;;;39.60;49.00;;;;;;4991315;28;20446;-65
2022/09/04 12:08:12;;;;;;;2.20;2.00;;;36.70;51.70;;;;;;4989478;28;20434;-66
2022/09/04 12:10:54;;;;;;;2.10;2.00;;;34.20;54.80;;;;;;4987620;28;20466;-66
2022/09/04 12:13:51;;;;;;;1.90;1.80;;;34.10;56.80;;;;;;4991296;28;20979;-65
2022/09/04 12:16:25;;;;;;;2.40;2.30;;;36.10;54.20;;;;;;4993694;28;20956;-65
2022/09/04 12:19:28;;;;;;;2.60;2.40;;;35.50;53.30;;;;;;4992786;28;20445;-65
2022/09/04 12:22:35;;;;;;;7.33;6.73;;;35.80;53.50;;;;;;4987894;28;20474;-65
2022/09/04 12:25:06;;;;;;;3.50;3.30;;;34.90;54.10;;;;;;4971785;28;20534;-65
2022/09/04 12:28:00;;;;;;;3.40;3.10;;;33.30;55.50;;;;;;4992460;28;20434;-65
2022/09/04 12:30:36;;;;;;;2.40;2.20;;;31.90;57.70;;;;;;4991322;28;20459;-65
2022/09/04 12:33:36;;;;;;;2.27;2.17;;;31.20;58.70;;;;;;4992635;28;20458;-64
2022/09/04 12:36:41;;;;;;;2.20;2.00;;;30.50;59.90;;;;;;4987102;28;20470;-65
2022/09/04 12:39:26;;;;;;;2.40;2.00;;;30.20;60.50;;;;;;4987321;28;20435;-66
2022/09/04 12:41:56;;;;;;;2.80;2.10;;;29.80;62.80;;;;;;4991997;28;20478;-65
2022/09/04 12:44:25;;;;;;;2.00;1.90;;;28.80;63.70;;;;;;4993295;28;20442;-65
2022/09/04 12:46:59;;;;;;;2.60;2.40;;;28.40;66.20;;;;;;4992990;28;20435;-65
2022/09/04 12:49:49;;;;;;;3.37;3.17;;;28.50;67.10;;;;;;4991550;28;20445;-64
2022/09/04 12:52:26;;;;;;;3.70;3.50;;;31.60;62.20;;;;;;4991212;28;20451;-65
2022/09/04 12:55:29;;;;;;;4.70;4.40;;;33.70;57.50;;;;;;4993210;28;20430;-67
2022/09/04 12:58:20;;;;;;;2.20;2.10;;;33.80;56.40;;;;;;4987050;28;20825;-67
2022/09/04 13:01:14;;;;;;;2.67;2.47;;;33.10;57.50;;;;;;4993280;28;20457;-67
2022/09/04 13:03:47;;;;;;;2.63;2.53;;;31.80;58.20;;;;;;4987581;28;20437;-67
2022/09/04 13:06:36;;;;;;;2.20;2.10;;;31.50;59.90;;;;;;4990867;28;20507;-66
2022/09/04 13:09:07;;;;;;;5.23;4.90;;;30.80;59.80;;;;;;4991018;28;20431;-67
2022/09/04 13:12:07;;;;;;;2.43;2.23;;;30.90;60.90;;;;;;4992930;28;20474;-67
2022/09/04 13:14:58;;;;;;;2.33;2.13;;;34.50;57.20;;;;;;4992418;28;20446;-67
2022/09/04 13:17:39;;;;;;;3.33;3.03;;;38.90;52.30;;;;;;4992320;28;20438;-67
2022/09/04 13:20:19;;;;;;;2.50;2.30;;;40.60;49.50;;;;;;4990030;28;20772;-68
2022/09/04 13:23:04;;;;;;;2.40;2.20;;;38.90;49.40;;;;;;4985189;28;20588;-66
2022/09/04 13:25:41;;;;;;;3.17;2.30;;;39.30;49.90;;;;;;4991229;28;20533;-67
2022/09/04 13:28:14;;;;;;;2.27;2.17;;;41.60;47.40;;;;;;4990940;28;20488;-67
2022/09/04 13:31:05;;;;;;;2.33;2.23;;;44.00;45.20;;;;;;4984544;28;20621;-67
2022/09/04 13:33:55;;;;;;;4.53;4.13;;;45.10;43.30;;;;;;4992187;28;20442;-67
2022/09/04 13:36:27;;;;;;;2.90;2.70;;;43.40;43.20;;;;;;4989499;28;20800;-68
2022/09/04 13:39:17;;;;;;;2.87;2.70;;;43.00;43.90;;;;;;4991206;28;20431;-67
2022/09/04 13:42:04;;;;;;;2.03;1.93;;;42.60;43.60;;;;;;4999027;28;20488;-68
2022/09/04 13:44:57;;;;;;;2.40;2.30;;;41.50;44.20;;;;;;4990549;28;20443;-67
2022/09/04 13:47:29;;;;;;;2.00;1.90;;;40.30;45.20;;;;;;4990030;28;20553;-68
2022/09/04 13:50:07;;;;;;;3.33;3.13;;;38.40;46.60;;;;;;4990516;28;20434;-67
2022/09/04 13:52:40;;;;;;;2.27;2.17;;;37.10;47.70;;;;;;4990796;28;20438;-67
2022/09/04 13:55:12;;;;;;;2.77;2.57;;;36.20;48.30;;;;;;4991958;28;20969;-68
2022/09/04 13:58:00;;;;;;;2.57;2.47;;;34.60;50.00;;;;;;4983570;28;20501;-67
2022/09/04 14:00:28;;;;;;;3.00;2.17;;;33.70;51.70;;;;;;4989387;28;20994;-67
2022/09/04 14:03:01;;;;;;;3.60;2.40;;;33.00;52.30;;;;;;4991346;28;20898;-67
2022/09/04 14:05:30;;;;;;;2.00;1.90;;;31.30;54.60;;;;;;4991612;28;20485;-67
2022/09/04 14:08:11;;;;;;;2.23;2.13;;;31.10;54.80;;;;;;4991457;28;20509;-67
2022/09/04 14:11:05;;;;;;;2.40;2.30;;;30.10;56.30;;;;;;4989866;28;20557;-67
2022/09/04 14:14:02;;;;;;;2.30;2.20;;;29.70;56.60;;;;;;4991100;28;20463;-66
2022/09/04 14:16:31;;;;;;;3.00;2.13;;;29.30;57.30;;;;;;4990788;28;20430;-67
2022/09/04 14:19:29;;;;;;;4.00;2.70;;;28.80;57.90;;;;;;4990719;28;20492;-66
2022/09/04 14:21:55;;;;;;;3.03;2.83;;;28.40;58.90;;;;;;4986210;28;20531;-67
2022/09/04 14:24:45;;;;;;;5.77;3.23;;;28.20;60.00;;;;;;4990660;28;20521;-67